Time;durP1;ratioP1;P1;durP2;ratioP2;P2;SDS_P1;SDS_P2;PMS_P1;PMS_P2;Temp;Humidity;BMP_temperature;BMP_pressure;BME280_temperature;BME280_humidity;BME280_pressure;Samples;Min_cycle;Max_cycle;Signal;HPM_P1;HPM_P2
2022/05/10 00:02:01;;;;;;;1.52;1.40;;;22.50;53.80;;;;;;4971826;28;20098;-16
2022/05/10 00:04:27;;;;;;;1.73;1.63;;;22.50;53.80;;;;;;4971968;28;20081;-15
2022/05/10 00:06:52;;;;;;;1.40;1.30;;;22.50;53.80;;;;;;4970664;28;20082;-15
2022/05/10 00:09:20;;;;;;;1.60;1.50;;;22.50;53.90;;;;;;4970612;28;20047;-16
2022/05/10 00:11:46;;;;;;;1.40;1.30;;;22.50;53.80;;;;;;4972095;28;20512;-16
2022/05/10 00:14:12;;;;;;;1.85;1.40;;;22.50;54.00;;;;;;4972063;28;20427;-16
2022/05/10 00:16:39;;;;;;;1.20;1.20;;;22.50;54.00;;;;;;4971947;28;20530;-16
2022/05/10 00:19:05;;;;;;;1.38;1.33;;;22.50;53.90;;;;;;4970739;28;20050;-16
2022/05/10 00:21:31;;;;;;;1.60;1.50;;;22.50;54.10;;;;;;4973499;28;20059;-16
2022/05/10 00:23:56;;;;;;;1.48;1.38;;;22.50;54.10;;;;;;4990836;28;20054;-16
2022/05/10 00:26:22;;;;;;;1.13;1.13;;;22.50;54.00;;;;;;4974476;28;20046;-16
2022/05/10 00:28:47;;;;;;;1.58;1.48;;;22.50;54.10;;;;;;4975361;28;20427;-16
2022/05/10 00:31:13;;;;;;;1.65;1.55;;;22.50;54.70;;;;;;4975513;28;20038;-16
2022/05/10 00:33:39;;;;;;;2.17;1.25;;;22.50;53.90;;;;;;4973864;28;20137;-16
2022/05/10 00:36:05;;;;;;;1.13;1.13;;;22.50;54.00;;;;;;4974361;28;20198;-16
2022/05/10 00:38:35;;;;;;;1.70;1.60;;;22.50;54.10;;;;;;4990182;28;20065;-15
2022/05/10 00:41:34;;;;;;;1.10;1.10;;;22.50;54.00;;;;;;4974350;28;20138;-16
2022/05/10 00:44:23;;;;;;;1.20;1.20;;;22.40;54.00;;;;;;4960789;28;20833;-15
2022/05/10 00:47:20;;;;;;;1.15;1.13;;;22.50;54.00;;;;;;4974766;28;20066;-15
2022/05/10 00:49:57;;;;;;;1.20;1.17;;;22.50;54.10;;;;;;4974372;28;20051;-16
2022/05/10 00:52:47;;;;;;;1.05;1.05;;;22.50;54.20;;;;;;4958669;28;20074;-15
2022/05/10 00:55:15;;;;;;;1.10;1.10;;;22.50;54.10;;;;;;4973550;28;20039;-15
2022/05/10 00:57:48;;;;;;;1.40;1.40;;;22.50;54.20;;;;;;4984535;28;20042;-15
2022/05/10 01:00:19;;;;;;;1.30;1.30;;;22.50;54.20;;;;;;4985670;28;20046;-15
2022/05/10 01:02:54;;;;;;;1.23;1.13;;;22.40;54.20;;;;;;4972729;28;20050;-15
2022/05/10 01:05:40;;;;;;;1.35;1.33;;;22.40;54.20;;;;;;4974158;28;20380;-16
2022/05/10 01:08:23;;;;;;;1.10;1.10;;;22.40;54.30;;;;;;4973471;28;20567;-16
2022/05/10 01:10:53;;;;;;;1.13;1.13;;;22.40;54.10;;;;;;4974359;28;20035;-15
2022/05/10 01:13:35;;;;;;;1.05;1.05;;;22.40;54.20;;;;;;4973392;28;20042;-16
2022/05/10 01:16:10;;;;;;;1.20;1.20;;;22.40;54.30;;;;;;4973209;28;20046;-15
2022/05/10 01:18:36;;;;;;;1.30;1.30;;;22.40;54.10;;;;;;4973882;28;20050;-16
2022/05/10 01:21:38;;;;;;;1.00;1.00;;;22.40;54.10;;;;;;4988073;28;20050;-17
2022/05/10 01:24:46;;;;;;;1.10;1.10;;;22.40;54.10;;;;;;4972421;28;20054;-16
2022/05/10 01:27:39;;;;;;;1.10;1.10;;;22.40;54.30;;;;;;4981730;28;20049;-15
2022/05/10 01:30:15;;;;;;;1.35;1.15;;;22.40;54.30;;;;;;4969039;28;20117;-16
2022/05/10 01:35:31;;;;;;;1.20;1.20;;;22.40;54.40;;;;;;4973375;28;20074;-16
2022/05/10 01:38:01;;;;;;;1.40;1.13;;;22.40;54.50;;;;;;4973075;28;20072;-16
2022/05/10 01:40:32;;;;;;;1.10;1.10;;;22.40;54.40;;;;;;4973854;28;20046;-15
2022/05/10 01:43:23;;;;;;;1.27;1.23;;;22.40;54.40;;;;;;4964866;28;20428;-16
2022/05/10 01:46:16;;;;;;;1.00;1.00;;;22.40;54.50;;;;;;4950690;28;20050;-16
2022/05/10 01:48:42;;;;;;;0.90;0.90;;;22.40;54.50;;;;;;4959936;28;20563;-16
2022/05/10 01:51:17;;;;;;;1.40;1.30;;;22.40;54.60;;;;;;4956880;28;20125;-17
2022/05/10 01:53:43;;;;;;;1.20;1.15;;;22.40;54.60;;;;;;4972943;28;20407;-15
2022/05/10 01:56:22;;;;;;;0.95;0.95;;;22.40;54.50;;;;;;4974502;28;20043;-16
2022/05/10 01:58:48;;;;;;;1.17;1.15;;;22.40;54.60;;;;;;4976994;28;20574;-16
2022/05/10 02:01:24;;;;;;;1.20;1.10;;;22.30;54.50;;;;;;4976195;28;20468;-16
2022/05/10 02:04:12;;;;;;;1.10;1.10;;;22.40;54.50;;;;;;4975267;28;20106;-16
2022/05/10 02:06:46;;;;;;;1.00;1.00;;;22.30;54.70;;;;;;4980262;28;20051;-15
2022/05/10 02:09:26;;;;;;;1.17;1.17;;;22.30;54.80;;;;;;4975951;28;20504;-15
2022/05/10 02:12:18;;;;;;;1.00;1.00;;;22.30;54.80;;;;;;4976416;28;20046;-16
2022/05/10 02:15:01;;;;;;;1.00;1.00;;;22.30;54.90;;;;;;4968783;28;20046;-16
2022/05/10 02:17:35;;;;;;;1.20;1.10;;;22.30;54.90;;;;;;4975400;28;20043;-16
2022/05/10 02:20:03;;;;;;;1.10;1.00;;;22.30;54.90;;;;;;4976317;28;20059;-16
2022/05/10 02:22:32;;;;;;;0.98;0.98;;;22.30;54.90;;;;;;4976949;28;20547;-15
2022/05/10 02:24:59;;;;;;;0.95;0.95;;;22.30;54.90;;;;;;4975923;28;20140;-15
2022/05/10 02:27:29;;;;;;;1.20;1.10;;;22.30;54.90;;;;;;4975758;28;20039;-16
2022/05/10 02:30:02;;;;;;;0.82;0.82;;;22.30;55.00;;;;;;4975836;28;20134;-16
2022/05/10 02:35:22;;;;;;;0.90;0.90;;;22.30;54.90;;;;;;4965626;28;20574;-17
2022/05/10 02:37:48;;;;;;;1.55;0.90;;;22.20;55.00;;;;;;4977101;28;20051;-16
2022/05/10 02:40:14;;;;;;;1.00;1.00;;;22.30;55.00;;;;;;4986565;28;20519;-16
2022/05/10 02:42:40;;;;;;;0.93;0.93;;;22.20;55.00;;;;;;4946318;28;20109;-16
2022/05/10 02:45:07;;;;;;;1.10;1.10;;;22.20;55.10;;;;;;4991977;28;20082;-16
2022/05/10 02:47:33;;;;;;;1.17;1.17;;;22.20;55.10;;;;;;4968128;28;20047;-15
2022/05/10 02:49:58;;;;;;;0.70;0.70;;;22.20;55.00;;;;;;4957997;28;20043;-15
2022/05/10 02:52:24;;;;;;;0.80;0.80;;;22.20;55.10;;;;;;4971454;28;20146;-16
2022/05/10 02:54:54;;;;;;;1.40;1.30;;;22.20;55.50;;;;;;4975159;28;20042;-16
2022/05/10 02:57:21;;;;;;;1.08;1.08;;;22.20;55.10;;;;;;4975155;28;20034;-15
2022/05/10 02:59:46;;;;;;;0.98;0.98;;;22.20;55.10;;;;;;4990969;28;20051;-15
2022/05/10 03:02:14;;;;;;;1.10;1.10;;;22.20;55.10;;;;;;4990339;28;20042;-15
2022/05/10 03:04:44;;;;;;;1.05;1.05;;;22.20;55.10;;;;;;4958027;28;20129;-16
2022/05/10 03:07:10;;;;;;;1.40;1.30;;;22.20;55.00;;;;;;4976674;28;20118;-16
2022/05/10 03:09:36;;;;;;;1.42;1.33;;;22.20;55.00;;;;;;4976184;28;20043;-16
2022/05/10 03:12:05;;;;;;;1.00;1.00;;;22.20;55.00;;;;;;4975570;28;20122;-16
2022/05/10 03:14:31;;;;;;;1.23;1.05;;;22.20;54.90;;;;;;4976286;28;20503;-16
2022/05/10 03:16:57;;;;;;;1.10;1.10;;;22.20;55.20;;;;;;4974778;28;20451;-15
2022/05/10 03:19:23;;;;;;;1.20;1.20;;;22.10;55.10;;;;;;4975754;28;20085;-16
2022/05/10 03:21:48;;;;;;;1.45;1.00;;;22.10;55.20;;;;;;4975929;28;20134;-16
2022/05/10 03:24:14;;;;;;;0.82;0.82;;;22.10;55.10;;;;;;4975750;28;20050;-17
2022/05/10 03:26:39;;;;;;;1.10;1.10;;;22.20;55.10;;;;;;4975919;28;20054;-16
2022/05/10 03:29:05;;;;;;;0.90;0.90;;;22.10;55.10;;;;;;4975472;28;20393;-15
2022/05/10 03:31:31;;;;;;;1.00;1.00;;;22.10;55.00;;;;;;4974984;28;20046;-16
2022/05/10 03:36:41;;;;;;;1.05;1.05;;;22.10;55.10;;;;;;4975395;28;20083;-15
2022/05/10 03:39:07;;;;;;;1.00;1.00;;;22.10;55.10;;;;;;4975680;28;20515;-15
2022/05/10 03:41:33;;;;;;;1.00;1.00;;;22.10;55.00;;;;;;4975847;28;21588;-15
2022/05/10 03:43:59;;;;;;;1.08;1.08;;;22.10;55.20;;;;;;4975884;28;20050;-16
2022/05/10 03:46:24;;;;;;;1.00;1.00;;;22.10;55.20;;;;;;4974803;28;20070;-15
2022/05/10 03:48:50;;;;;;;1.10;1.10;;;22.10;55.20;;;;;;4972240;28;20035;-15
2022/05/10 03:51:16;;;;;;;0.88;0.88;;;22.10;55.20;;;;;;4971980;28;20551;-16
2022/05/10 03:53:42;;;;;;;0.85;0.85;;;22.10;55.10;;;;;;4975520;28;20051;-16
2022/05/10 03:56:08;;;;;;;1.17;1.08;;;22.10;55.20;;;;;;4976109;28;20043;-16
2022/05/10 03:58:33;;;;;;;1.23;1.05;;;22.10;55.20;;;;;;4978397;28;20047;-15
2022/05/10 04:00:59;;;;;;;1.20;1.20;;;22.10;55.20;;;;;;4977036;28;20050;-15
2022/05/10 04:03:25;;;;;;;1.33;1.27;;;22.10;55.00;;;;;;4979153;28;20590;-16
2022/05/10 04:05:50;;;;;;;1.20;1.20;;;22.10;55.10;;;;;;4979378;28;20042;-16
2022/05/10 04:08:16;;;;;;;0.82;0.80;;;22.00;55.20;;;;;;4979075;28;20051;-16
2022/05/10 04:10:42;;;;;;;1.10;1.05;;;22.10;55.10;;;;;;4979659;28;20134;-15
2022/05/10 04:13:09;;;;;;;1.50;1.40;;;22.10;55.10;;;;;;4980090;28;20130;-15
2022/05/10 04:15:35;;;;;;;0.90;0.90;;;22.10;55.10;;;;;;4977803;28;20050;-16
2022/05/10 04:18:00;;;;;;;0.80;0.80;;;22.00;55.20;;;;;;4978530;28;20042;-15
2022/05/10 04:20:26;;;;;;;1.30;1.20;;;22.10;55.20;;;;;;4978243;28;20642;-15
2022/05/10 04:22:52;;;;;;;1.00;1.00;;;22.10;55.30;;;;;;4977652;28;20054;-15
2022/05/10 04:25:18;;;;;;;1.00;1.00;;;22.00;55.20;;;;;;4979127;28;20134;-16
2022/05/10 04:27:43;;;;;;;0.90;0.90;;;22.00;55.90;;;;;;4978690;28;20050;-16
2022/05/10 04:30:10;;;;;;;1.15;1.05;;;22.00;55.50;;;;;;4979604;28;20039;-15
2022/05/10 04:32:37;;;;;;;1.10;1.10;;;22.00;55.30;;;;;;4977861;28;20050;-16
2022/05/10 04:35:04;;;;;;;0.80;0.80;;;22.00;55.20;;;;;;4978479;28;20045;-15
2022/05/10 04:37:29;;;;;;;1.10;1.10;;;22.00;55.50;;;;;;4977118;28;20073;-16
2022/05/10 04:42:43;;;;;;;1.10;1.10;;;22.00;55.30;;;;;;4978551;28;20061;-16
2022/05/10 04:45:09;;;;;;;1.13;1.13;;;22.00;55.30;;;;;;4976441;28;20078;-16
2022/05/10 04:47:34;;;;;;;1.05;1.05;;;22.00;55.30;;;;;;4971552;28;20043;-15
2022/05/10 04:50:01;;;;;;;1.00;1.00;;;21.90;55.40;;;;;;4977969;28;20073;-16
2022/05/10 04:52:27;;;;;;;2.45;1.15;;;22.00;55.40;;;;;;4979713;28;20042;-16
2022/05/10 04:54:52;;;;;;;1.23;1.13;;;22.00;55.40;;;;;;4977623;28;20054;-16
2022/05/10 04:57:18;;;;;;;2.28;1.00;;;22.00;55.50;;;;;;4979381;28;20039;-16
2022/05/10 04:59:43;;;;;;;1.10;1.10;;;22.00;55.40;;;;;;4978359;28;20039;-15
2022/05/10 05:02:09;;;;;;;1.05;1.05;;;22.00;55.50;;;;;;4977095;28;20106;-15
2022/05/10 05:04:35;;;;;;;0.95;0.95;;;21.90;55.40;;;;;;4978194;28;20050;-15
2022/05/10 05:07:00;;;;;;;0.90;0.90;;;21.90;55.60;;;;;;4987161;28;20043;-16
2022/05/10 05:09:26;;;;;;;1.20;1.20;;;22.00;55.50;;;;;;4978513;28;20054;-15
2022/05/10 05:11:52;;;;;;;1.25;1.25;;;21.90;55.50;;;;;;4979016;28;20046;-16
2022/05/10 05:14:17;;;;;;;1.30;1.20;;;21.90;55.60;;;;;;4629559;28;9999777;-15
2022/05/10 05:16:43;;;;;;;2.00;1.40;;;21.90;56.40;;;;;;4978001;28;20453;-15
2022/05/10 05:19:08;;;;;;;2.17;1.90;;;21.70;56.20;;;;;;4977755;28;20068;-15
2022/05/10 05:21:34;;;;;;;2.40;2.30;;;21.40;56.20;;;;;;4976762;28;20055;-15
2022/05/10 05:23:59;;;;;;;3.90;2.42;;;21.20;56.50;;;;;;4973892;28;20113;-15
2022/05/10 05:26:25;;;;;;;3.97;2.83;;;21.10;56.90;;;;;;4973786;28;20054;-15
2022/05/10 05:28:51;;;;;;;2.75;2.55;;;21.10;56.90;;;;;;4975007;28;20049;-16
2022/05/10 05:31:17;;;;;;;2.95;2.65;;;21.10;56.70;;;;;;4975032;28;20593;-15
2022/05/10 05:33:43;;;;;;;2.30;2.15;;;21.00;56.70;;;;;;4974004;28;20527;-16
2022/05/10 05:36:09;;;;;;;2.60;2.40;;;21.00;57.10;;;;;;4974376;28;20515;-15
2022/05/10 05:38:34;;;;;;;3.30;3.00;;;20.90;57.30;;;;;;4974481;28;20440;-15
2022/05/10 05:41:01;;;;;;;3.30;3.00;;;20.80;57.50;;;;;;4974353;28;20038;-15
2022/05/10 05:43:27;;;;;;;2.70;2.50;;;20.70;57.70;;;;;;4972943;28;20193;-15
2022/05/10 05:45:53;;;;;;;2.90;2.70;;;20.80;57.80;;;;;;4974367;28;20130;-16
2022/05/10 05:48:19;;;;;;;3.17;2.75;;;20.60;58.20;;;;;;4974718;28;20120;-15
2022/05/10 05:50:44;;;;;;;2.70;2.60;;;20.60;58.40;;;;;;4981057;28;20050;-15
2022/05/10 05:53:10;;;;;;;2.42;2.33;;;20.50;58.50;;;;;;4976651;28;20062;-15
2022/05/10 05:55:36;;;;;;;2.95;2.67;;;20.50;58.60;;;;;;4973055;28;20070;-15
2022/05/10 05:58:01;;;;;;;2.65;2.55;;;20.50;58.80;;;;;;4974198;28;20125;-16
2022/05/10 06:00:27;;;;;;;3.13;2.60;;;20.40;58.90;;;;;;4973467;28;20050;-15
2022/05/10 06:02:53;;;;;;;4.28;2.75;;;20.40;58.90;;;;;;4973186;28;20053;-15
2022/05/10 06:05:19;;;;;;;2.92;2.55;;;20.40;59.30;;;;;;4967206;28;20105;-15
2022/05/10 06:07:45;;;;;;;3.60;2.90;;;20.30;59.40;;;;;;4959135;28;20054;-17
2022/05/10 06:10:11;;;;;;;3.55;3.25;;;20.30;59.80;;;;;;4959966;28;20076;-17
2022/05/10 06:12:37;;;;;;;3.75;3.45;;;20.30;60.10;;;;;;4959037;28;20058;-18
2022/05/10 06:15:08;;;;;;;3.72;3.53;;;20.10;60.20;;;;;;4959925;28;20594;-18
2022/05/10 06:17:35;;;;;;;3.35;3.15;;;20.10;60.20;;;;;;4958071;28;20106;-17
2022/05/10 06:20:00;;;;;;;3.47;3.28;;;20.10;60.50;;;;;;4958764;28;20053;-18
2022/05/10 06:22:26;;;;;;;3.97;3.78;;;20.00;60.90;;;;;;4958062;28;20055;-19
2022/05/10 06:24:52;;;;;;;5.18;3.40;;;20.10;60.80;;;;;;4959914;28;20065;-17
2022/05/10 06:27:18;;;;;;;3.60;3.30;;;20.10;60.60;;;;;;4959988;28;21125;-17
2022/05/10 06:29:44;;;;;;;3.25;2.95;;;20.20;61.20;;;;;;4959123;28;20062;-16
2022/05/10 06:32:11;;;;;;;4.13;3.78;;;20.30;60.30;;;;;;4959116;28;20055;-17
2022/05/10 06:34:41;;;;;;;4.15;3.80;;;20.20;60.40;;;;;;4962503;28;20083;-17
2022/05/10 06:38:16;;;;;;;4.20;4.00;;;20.30;60.30;;;;;;4986644;28;20058;-16
2022/05/10 06:39:52;;;;;;;3.60;3.38;;;20.20;60.50;;;;;;4973278;28;20046;-16
2022/05/10 06:42:24;;;;;;;3.38;3.17;;;20.20;60.50;;;;;;4973550;28;20487;-17
2022/05/10 06:44:49;;;;;;;5.13;3.38;;;20.30;60.30;;;;;;4972511;28;20046;-17
2022/05/10 06:47:15;;;;;;;3.95;3.30;;;20.40;60.20;;;;;;4973239;28;20096;-15
2022/05/10 06:49:40;;;;;;;3.63;3.42;;;20.50;60.00;;;;;;4975191;28;20050;-16
2022/05/10 06:52:06;;;;;;;3.25;2.97;;;20.50;59.80;;;;;;4975449;28;20057;-15
2022/05/10 06:54:32;;;;;;;3.20;3.00;;;20.50;59.70;;;;;;4976339;28;20074;-16
2022/05/10 06:56:57;;;;;;;2.78;2.58;;;20.60;59.30;;;;;;4976300;28;20054;-16
2022/05/10 06:59:23;;;;;;;3.33;2.38;;;20.80;58.90;;;;;;4977185;28;20130;-15
2022/05/10 07:01:48;;;;;;;2.58;2.38;;;20.90;58.60;;;;;;4975007;28;20412;-16
2022/05/10 07:04:14;;;;;;;2.53;2.33;;;20.90;58.40;;;;;;4976500;28;20088;-16
2022/05/10 07:06:40;;;;;;;2.78;2.58;;;20.90;58.10;;;;;;4974987;28;20624;-16
2022/05/10 07:09:05;;;;;;;3.08;2.83;;;21.00;57.90;;;;;;4976978;28;20046;-16
2022/05/10 07:11:31;;;;;;;3.60;2.65;;;21.00;57.60;;;;;;4976388;28;20092;-16
2022/05/10 07:13:57;;;;;;;2.38;2.28;;;21.10;57.50;;;;;;4976715;28;20043;-16
2022/05/10 07:16:22;;;;;;;2.53;2.33;;;21.10;57.50;;;;;;4976237;28;20051;-16
2022/05/10 07:18:48;;;;;;;2.65;2.45;;;21.10;57.40;;;;;;4976141;28;20046;-16
2022/05/10 07:21:13;;;;;;;2.20;2.10;;;21.10;57.30;;;;;;4976136;28;20039;-15
2022/05/10 07:23:39;;;;;;;2.33;2.22;;;21.20;57.20;;;;;;4976040;28;20117;-16
2022/05/10 07:26:05;;;;;;;1.88;1.77;;;21.20;57.10;;;;;;4976086;28;20047;-16
2022/05/10 07:28:32;;;;;;;2.33;2.20;;;21.20;57.00;;;;;;4976156;28;20050;-17
2022/05/10 07:30:58;;;;;;;2.25;2.05;;;21.20;56.90;;;;;;4975775;28;20097;-15
2022/05/10 07:33:24;;;;;;;2.47;2.30;;;21.30;56.90;;;;;;4976490;28;20046;-16
2022/05/10 07:38:34;;;;;;;2.13;1.98;;;21.30;56.80;;;;;;4976082;28;20510;-15
2022/05/10 07:41:00;;;;;;;2.10;2.00;;;21.30;56.70;;;;;;4975851;28;20431;-16
2022/05/10 07:43:27;;;;;;;2.80;2.10;;;21.30;56.50;;;;;;4976586;28;20035;-16
2022/05/10 07:45:54;;;;;;;2.33;2.22;;;21.30;56.50;;;;;;4975123;28;20054;-16
2022/05/10 07:48:19;;;;;;;5.13;2.30;;;21.30;56.40;;;;;;4976365;28;20034;-16
2022/05/10 07:50:45;;;;;;;1.90;1.80;;;21.30;56.40;;;;;;4973956;28;20042;-16
2022/05/10 07:53:11;;;;;;;1.77;1.67;;;21.30;56.40;;;;;;4976487;28;20047;-16
2022/05/10 07:55:37;;;;;;;1.80;1.70;;;21.30;56.40;;;;;;4975960;28;20043;-16
2022/05/10 07:58:06;;;;;;;1.85;1.75;;;21.30;56.40;;;;;;4976521;28;20050;-16
2022/05/10 08:00:37;;;;;;;2.05;1.83;;;21.30;56.30;;;;;;4975114;28;20053;-17
2022/05/10 08:03:16;;;;;;;2.80;2.00;;;21.30;56.20;;;;;;4976216;28;20043;-16
2022/05/10 08:05:41;;;;;;;1.77;1.67;;;21.30;56.10;;;;;;4974570;28;20134;-16
2022/05/10 08:08:07;;;;;;;1.50;1.40;;;21.30;55.90;;;;;;4975563;28;20125;-16
2022/05/10 08:10:33;;;;;;;1.85;1.75;;;21.30;56.00;;;;;;4973905;28;20047;-16
2022/05/10 08:12:58;;;;;;;1.92;1.83;;;21.40;56.00;;;;;;4974941;28;20041;-15
2022/05/10 08:15:24;;;;;;;1.70;1.60;;;21.30;55.80;;;;;;4975734;28;20043;-16
2022/05/10 08:17:52;;;;;;;1.70;1.60;;;21.40;55.80;;;;;;4975512;28;20106;-16
2022/05/10 08:20:18;;;;;;;1.73;1.60;;;21.40;55.80;;;;;;4976303;28;20078;-15
2022/05/10 08:22:44;;;;;;;2.75;1.65;;;21.40;55.70;;;;;;4974716;28;20047;-16
2022/05/10 08:25:11;;;;;;;2.00;1.67;;;21.40;55.50;;;;;;4976271;28;20058;-16
2022/05/10 08:27:37;;;;;;;1.63;1.52;;;21.40;55.50;;;;;;4975759;28;20411;-16
2022/05/10 08:30:03;;;;;;;1.75;1.65;;;21.50;55.50;;;;;;4976231;28;20046;-16
2022/05/10 08:32:28;;;;;;;1.67;1.58;;;21.50;55.30;;;;;;4975349;28;20050;-15
2022/05/10 08:34:54;;;;;;;1.80;1.70;;;21.50;55.30;;;;;;4975674;28;20113;-15
2022/05/10 08:37:20;;;;;;;1.90;1.73;;;21.50;55.30;;;;;;4976106;28;20153;-16
2022/05/10 08:39:45;;;;;;;1.35;1.35;;;21.50;55.20;;;;;;4974849;28;20508;-15
2022/05/10 08:42:19;;;;;;;1.77;1.67;;;21.50;55.10;;;;;;4976290;28;20062;-15
2022/05/10 08:44:46;;;;;;;1.70;1.60;;;21.50;55.00;;;;;;4977726;28;20054;-15
2022/05/10 08:47:12;;;;;;;1.23;1.20;;;21.50;55.20;;;;;;4962254;28;20077;-15
2022/05/10 08:49:51;;;;;;;1.63;1.35;;;21.60;55.00;;;;;;4977019;28;20050;-15
2022/05/10 08:52:17;;;;;;;1.98;1.45;;;21.50;55.10;;;;;;4962961;28;20070;-15
2022/05/10 08:54:43;;;;;;;1.60;1.50;;;21.60;55.00;;;;;;4978912;28;20404;-15
2022/05/10 08:57:20;;;;;;;1.60;1.50;;;21.60;54.90;;;;;;4979479;28;20073;-15
2022/05/10 08:59:56;;;;;;;1.73;1.70;;;21.60;55.10;;;;;;4958244;28;20131;-15
2022/05/10 09:02:47;;;;;;;1.88;1.77;;;21.60;55.10;;;;;;4958561;28;20050;-15
2022/05/10 09:05:18;;;;;;;1.70;1.60;;;21.60;54.90;;;;;;4961143;28;20055;-15
2022/05/10 09:08:12;;;;;;;1.40;1.30;;;21.70;54.90;;;;;;4968049;28;20424;-15
2022/05/10 09:10:39;;;;;;;1.50;1.42;;;21.60;55.00;;;;;;4978538;28;20527;-16
2022/05/10 09:13:06;;;;;;;1.30;1.20;;;21.60;55.10;;;;;;4979019;28;20046;-15
2022/05/10 09:15:37;;;;;;;1.90;1.80;;;21.70;55.00;;;;;;4978885;28;20046;-15
2022/05/10 09:18:23;;;;;;;1.50;1.40;;;21.70;54.90;;;;;;4978262;28;20046;-15
2022/05/10 09:21:23;;;;;;;1.70;1.60;;;21.70;54.90;;;;;;4977307;28;20046;-15
2022/05/10 09:24:03;;;;;;;1.33;1.33;;;21.70;54.80;;;;;;4976261;28;20043;-15
2022/05/10 09:26:38;;;;;;;1.80;1.70;;;21.70;54.80;;;;;;4978962;28;20039;-15
2022/05/10 09:29:25;;;;;;;1.83;1.70;;;21.70;54.80;;;;;;4977818;28;20066;-15
2022/05/10 09:34:47;;;;;;;1.65;1.55;;;21.80;54.80;;;;;;4978018;28;20109;-15
2022/05/10 09:37:14;;;;;;;1.33;1.30;;;21.70;54.70;;;;;;4977416;28;20046;-15
2022/05/10 09:39:44;;;;;;;1.50;1.40;;;21.70;54.70;;;;;;4978134;28;20050;-15
2022/05/10 09:42:10;;;;;;;1.08;1.08;;;21.80;54.60;;;;;;4961637;28;20043;-15
2022/05/10 09:44:35;;;;;;;1.50;1.40;;;21.80;54.70;;;;;;4960536;28;20496;-15
2022/05/10 09:47:16;;;;;;;1.42;1.33;;;21.80;54.70;;;;;;4976406;28;20066;-15
2022/05/10 09:49:41;;;;;;;1.13;1.13;;;21.80;54.80;;;;;;4977885;28;20129;-15
2022/05/10 09:52:19;;;;;;;1.60;1.50;;;21.80;54.70;;;;;;4978335;28;20129;-15
2022/05/10 09:54:45;;;;;;;1.50;1.40;;;21.80;54.70;;;;;;4975446;28;20051;-15
2022/05/10 09:57:25;;;;;;;1.45;1.35;;;21.80;54.60;;;;;;4977137;28;20050;-15
2022/05/10 09:59:50;;;;;;;1.70;1.30;;;21.80;54.60;;;;;;4962203;28;20108;-16
2022/05/10 10:02:32;;;;;;;1.27;1.20;;;21.80;54.60;;;;;;4976203;28;20046;-15
2022/05/10 10:04:58;;;;;;;1.48;1.38;;;21.80;54.60;;;;;;4976692;28;20054;-15
2022/05/10 10:07:26;;;;;;;1.45;1.45;;;21.80;54.60;;;;;;4977914;28;20039;-16
2022/05/10 10:09:55;;;;;;;1.60;1.50;;;21.80;54.80;;;;;;4975512;28;20055;-15
2022/05/10 10:12:37;;;;;;;1.25;1.15;;;21.80;54.60;;;;;;4977144;28;20043;-15
2022/05/10 10:15:18;;;;;;;1.50;1.40;;;21.90;54.70;;;;;;4977223;28;20050;-15
2022/05/10 10:17:53;;;;;;;1.35;1.25;;;21.80;54.60;;;;;;4974280;28;20059;-15
2022/05/10 10:20:28;;;;;;;1.40;1.30;;;21.90;54.60;;;;;;4951215;28;20046;-15
2022/05/10 10:22:54;;;;;;;1.23;1.13;;;21.90;54.60;;;;;;4973359;28;20442;-15
2022/05/10 10:25:39;;;;;;;1.05;1.05;;;21.90;54.50;;;;;;4977824;28;20102;-15
2022/05/10 10:28:25;;;;;;;1.30;1.20;;;21.90;54.50;;;;;;4977107;28;20066;-15
2022/05/10 10:31:16;;;;;;;1.27;1.20;;;21.90;54.50;;;;;;4976635;28;20053;-16
2022/05/10 10:33:45;;;;;;;1.20;1.20;;;21.90;54.50;;;;;;4962795;28;20038;-17
2022/05/10 10:36:24;;;;;;;1.10;1.10;;;21.90;54.50;;;;;;4960420;28;20038;-15
2022/05/10 10:39:12;;;;;;;1.00;1.00;;;21.90;54.40;;;;;;4975676;28;20110;-15
2022/05/10 10:42:00;;;;;;;1.13;1.13;;;21.90;54.40;;;;;;4960838;28;20046;-15
2022/05/10 10:44:28;;;;;;;0.98;0.98;;;21.90;54.50;;;;;;4975616;28;20105;-15
2022/05/10 10:47:00;;;;;;;1.17;1.17;;;21.90;54.40;;;;;;4958727;28;20042;-15
2022/05/10 10:49:52;;;;;;;0.85;0.85;;;22.00;54.50;;;;;;4976022;28;20046;-15
2022/05/10 10:52:18;;;;;;;1.35;1.23;;;22.00;54.30;;;;;;4976719;28;20039;-15
2022/05/10 10:54:45;;;;;;;1.23;1.23;;;22.00;54.30;;;;;;4974829;28;20101;-17
2022/05/10 10:57:21;;;;;;;1.15;1.15;;;22.00;54.30;;;;;;4976066;28;20559;-18
2022/05/10 11:00:05;;;;;;;1.08;1.08;;;22.00;54.20;;;;;;4975322;28;20460;-15
2022/05/10 11:02:53;;;;;;;1.02;0.93;;;22.00;54.10;;;;;;4976905;28;20046;-15
2022/05/10 11:05:34;;;;;;;0.90;0.90;;;22.00;54.20;;;;;;4990861;28;20053;-15
2022/05/10 11:08:21;;;;;;;1.17;1.17;;;22.00;54.10;;;;;;4975029;28;20046;-15
2022/05/10 11:10:58;;;;;;;1.20;1.20;;;22.00;54.20;;;;;;4975824;28;20051;-16
2022/05/10 11:13:50;;;;;;;0.90;0.90;;;22.00;54.10;;;;;;4960122;28;20134;-15
2022/05/10 11:16:21;;;;;;;0.90;0.90;;;22.00;54.10;;;;;;4977116;28;20035;-15
2022/05/10 11:19:06;;;;;;;0.95;0.90;;;22.00;54.00;;;;;;4975323;28;20045;-17
2022/05/10 11:21:53;;;;;;;1.00;1.00;;;22.10;53.90;;;;;;4975356;28;20077;-15
2022/05/10 11:24:43;;;;;;;0.90;0.90;;;22.10;54.00;;;;;;4976323;28;20105;-15
2022/05/10 11:27:34;;;;;;;1.17;1.17;;;22.00;54.10;;;;;;4976098;28;20092;-15
2022/05/10 11:30:21;;;;;;;1.15;1.13;;;22.10;54.10;;;;;;4960740;28;20043;-15
2022/05/10 11:32:59;;;;;;;1.10;1.10;;;22.10;54.20;;;;;;4974830;28;20046;-16
2022/05/10 11:35:51;;;;;;;1.05;0.95;;;22.10;54.20;;;;;;4623209;28;10000371;-15
2022/05/10 11:38:39;;;;;;;1.23;1.13;;;22.10;54.20;;;;;;4985695;28;20546;-15
2022/05/10 11:41:39;;;;;;;1.20;1.20;;;22.10;54.30;;;;;;4956198;28;20050;-15
2022/05/10 11:44:30;;;;;;;0.85;0.85;;;22.10;54.50;;;;;;4965192;28;20342;-15
2022/05/10 11:47:00;;;;;;;2.38;1.08;;;22.10;54.70;;;;;;4970501;28;20047;-16
2022/05/10 11:49:41;;;;;;;0.90;0.90;;;22.10;54.80;;;;;;4971660;28;20057;-15
2022/05/10 11:52:31;;;;;;;1.20;1.10;;;22.10;54.80;;;;;;4970615;28;20523;-15
2022/05/10 11:54:56;;;;;;;1.45;1.35;;;22.20;55.00;;;;;;4973298;28;20047;-17
2022/05/10 11:57:22;;;;;;;1.13;1.10;;;22.20;54.70;;;;;;4974814;28;20595;-16
2022/05/10 11:59:48;;;;;;;1.48;1.15;;;22.20;54.80;;;;;;4972432;28;20115;-17
2022/05/10 12:02:29;;;;;;;1.10;0.90;;;22.20;55.00;;;;;;4973902;28;20123;-16
2022/05/10 12:05:10;;;;;;;1.23;1.20;;;22.20;55.00;;;;;;4975063;28;20054;-16
2022/05/10 12:08:22;;;;;;;1.42;1.17;;;22.20;54.90;;;;;;4975539;28;20039;-16
2022/05/10 12:10:48;;;;;;;1.02;1.02;;;22.20;54.90;;;;;;4950710;28;20539;-16
2022/05/10 12:22:11;;;;;;;1.13;1.05;;;22.20;54.70;;;;;;4965060;28;20065;-16
2022/05/10 12:24:44;;;;;;;0.75;0.75;;;22.30;54.80;;;;;;4980016;28;20059;-16
2022/05/10 12:27:12;;;;;;;0.80;0.80;;;22.30;54.80;;;;;;4977463;28;20097;-17
2022/05/10 12:29:38;;;;;;;0.93;0.93;;;22.30;54.80;;;;;;4979923;28;20129;-16
2022/05/10 12:32:21;;;;;;;1.35;0.98;;;22.30;54.70;;;;;;4978998;28;20073;-16
2022/05/10 12:34:56;;;;;;;1.00;1.00;;;22.30;54.70;;;;;;4979008;28;20126;-16
2022/05/10 12:37:36;;;;;;;0.90;0.90;;;22.30;54.70;;;;;;4979230;28;20054;-16
2022/05/10 12:40:10;;;;;;;1.48;1.10;;;22.30;54.70;;;;;;4971876;28;20046;-16
2022/05/10 12:42:57;;;;;;;1.02;1.02;;;22.30;54.70;;;;;;4977126;28;20039;-16
2022/05/10 12:45:35;;;;;;;0.95;0.80;;;22.30;54.70;;;;;;4978581;28;20054;-16
2022/05/10 12:48:33;;;;;;;1.75;0.88;;;22.30;54.70;;;;;;4978764;28;20042;-16
2022/05/10 12:51:13;;;;;;;0.70;0.70;;;22.30;54.60;;;;;;4977171;28;20061;-16
2022/05/10 12:53:49;;;;;;;1.00;1.00;;;22.30;54.50;;;;;;4977822;28;20050;-16
2022/05/10 12:56:27;;;;;;;0.90;0.90;;;22.30;54.50;;;;;;4978080;28;20046;-16
2022/05/10 12:59:06;;;;;;;0.77;0.77;;;22.30;54.50;;;;;;4977427;28;20059;-17
2022/05/10 13:01:33;;;;;;;1.30;0.95;;;22.40;54.50;;;;;;4963132;28;20038;-16
2022/05/10 13:04:22;;;;;;;1.00;0.90;;;22.40;54.50;;;;;;4977895;28;20053;-16
2022/05/10 13:07:09;;;;;;;1.83;0.95;;;22.40;54.40;;;;;;4979221;28;20039;-16
2022/05/10 13:09:58;;;;;;;1.00;1.00;;;22.40;54.40;;;;;;4978722;28;20046;-16
2022/05/10 13:12:30;;;;;;;0.93;0.93;;;22.40;54.30;;;;;;4976999;28;20043;-16
2022/05/10 13:15:10;;;;;;;1.10;1.10;;;22.40;54.30;;;;;;4978430;28;20391;-17
2022/05/10 13:17:36;;;;;;;1.30;1.20;;;22.40;54.10;;;;;;4977025;28;20054;-16
2022/05/10 13:20:10;;;;;;;0.90;0.90;;;22.40;54.10;;;;;;4977161;28;20047;-17
2022/05/10 13:22:37;;;;;;;1.58;1.20;;;22.50;54.10;;;;;;4977575;28;20043;-16
2022/05/10 13:25:06;;;;;;;0.95;0.85;;;22.50;54.00;;;;;;4977013;28;20092;-16
2022/05/10 13:27:33;;;;;;;0.80;0.80;;;22.50;54.00;;;;;;4978125;28;20070;-16
2022/05/10 13:30:09;;;;;;;1.00;1.00;;;22.50;54.10;;;;;;4975548;28;20419;-17
2022/05/10 13:32:38;;;;;;;0.82;0.82;;;22.50;53.90;;;;;;4978680;28;20038;-17
2022/05/10 13:35:06;;;;;;;0.90;0.82;;;22.50;54.00;;;;;;4977515;28;20070;-16